createdAt,value
2018-07-31T00:00:18.241Z,11.57
2018-07-31T00:02:48.329Z,11.20
2018-07-31T00:05:19.051Z,11.00
2018-07-31T00:07:49.111Z,11.57
2018-07-31T00:10:19.432Z,11.80
2018-07-31T00:12:49.949Z,12.27
2018-07-31T00:15:20.052Z,12.00
2018-07-31T00:17:50.110Z,12.30
2018-07-31T00:20:20.381Z,12.80
2018-07-31T00:22:51.303Z,13.23
2018-07-31T00:25:22.589Z,13.47
2018-07-31T00:27:53.677Z,13.73
2018-07-31T00:30:23.784Z,14.10
2018-07-31T00:32:54.081Z,14.37
2018-07-31T00:35:24.705Z,14.40
2018-07-31T00:37:54.948Z,14.97
2018-07-31T00:40:25.534Z,14.97
2018-07-31T00:42:55.918Z,14.30
2018-07-31T00:45:26.521Z,13.83
2018-07-31T00:47:56.677Z,14.80
2018-07-31T00:50:26.965Z,14.77
2018-07-31T00:52:57.117Z,14.53
2018-07-31T00:55:27.213Z,14.63
2018-07-31T00:57:57.661Z,14.87
2018-07-31T01:00:27.920Z,14.93
2018-07-31T01:02:58.276Z,14.43
2018-07-31T01:05:28.672Z,14.80
2018-07-31T01:07:58.836Z,15.63
2018-07-31T01:10:28.970Z,14.73
2018-07-31T01:12:59.339Z,14.37
2018-07-31T01:15:29.477Z,13.70
2018-07-31T01:18:00.087Z,14.17
2018-07-31T01:20:30.923Z,13.83
2018-07-31T01:23:01.014Z,13.70
2018-07-31T01:25:31.382Z,14.83
2018-07-31T01:28:01.750Z,14.00
2018-07-31T01:30:32.341Z,14.13
2018-07-31T01:33:03.259Z,15.60
2018-07-31T01:35:33.389Z,14.43
2018-07-31T01:38:03.921Z,14.70
2018-07-31T01:40:34.724Z,14.90
2018-07-31T01:43:04.982Z,14.70
2018-07-31T01:45:35.277Z,15.20
2018-07-31T01:48:05.819Z,15.30
2018-07-31T01:50:36.862Z,15.60
2018-07-31T01:53:07.182Z,14.90
2018-07-31T01:55:37.593Z,15.37
2018-07-31T01:58:08.396Z,15.03
2018-07-31T02:00:39.001Z,15.40
2018-07-31T02:03:09.726Z,15.27
2018-07-31T02:05:39.978Z,14.83
2018-07-31T02:08:10.314Z,14.70
2018-07-31T02:10:40.437Z,14.90
2018-07-31T02:13:11.107Z,15.17
2018-07-31T02:15:41.285Z,14.87
2018-07-31T02:18:11.426Z,14.90
2018-07-31T02:20:42.682Z,15.10
2018-07-31T02:23:13.258Z,14.87
2018-07-31T02:25:44.058Z,16.23
2018-07-31T02:28:14.954Z,15.70
2018-07-31T02:30:45.889Z,15.60
2018-07-31T02:33:15.933Z,15.70
2018-07-31T02:35:45.929Z,16.60
2018-07-31T02:38:15.789Z,17.50
2018-07-31T02:40:45.973Z,15.67
2018-07-31T02:43:16.223Z,16.93
2018-07-31T02:45:46.445Z,16.17
2018-07-31T02:48:16.835Z,16.57
2018-07-31T02:50:47.398Z,16.50
2018-07-31T02:53:17.724Z,17.07
2018-07-31T02:55:47.865Z,15.67
2018-07-31T02:58:18.125Z,16.20
2018-07-31T03:00:48.307Z,16.03
2018-07-31T03:03:18.791Z,15.90
2018-07-31T03:05:49.654Z,16.40
2018-07-31T03:08:20.470Z,16.87
2018-07-31T03:10:51.943Z,16.83
2018-07-31T03:13:22.473Z,17.10
2018-07-31T03:15:52.989Z,17.17
2018-07-31T03:18:23.502Z,17.57
2018-07-31T03:20:54.077Z,16.83
2018-07-31T03:23:25.298Z,16.47
2018-07-31T03:25:55.705Z,15.90
2018-07-31T03:28:25.992Z,18.07
2018-07-31T03:30:56.765Z,18.77
2018-07-31T03:33:27.929Z,17.27
2018-07-31T03:35:58.808Z,17.00
2018-07-31T03:38:29.032Z,16.27
2018-07-31T03:40:59.209Z,16.07
2018-07-31T03:43:29.989Z,16.07
2018-07-31T03:46:00.849Z,16.77
2018-07-31T03:48:31.661Z,16.23
2018-07-31T03:51:02.037Z,16.03
2018-07-31T03:53:32.459Z,15.27
2018-07-31T03:56:02.990Z,15.27
2018-07-31T03:58:33.069Z,15.83
2018-07-31T04:01:03.775Z,14.47
2018-07-31T04:03:34.205Z,14.83
2018-07-31T04:06:04.902Z,15.73
2018-07-31T04:08:35.309Z,16.83
2018-07-31T04:11:05.520Z,22.30
2018-07-31T04:13:35.749Z,16.40
2018-07-31T04:16:05.922Z,21.13
2018-07-31T04:18:36.442Z,15.87
2018-07-31T04:21:07.280Z,14.97
2018-07-31T04:23:37.906Z,14.70
2018-07-31T04:26:08.685Z,15.87
2018-07-31T04:28:39.236Z,14.67
2018-07-31T04:31:09.779Z,15.20
2018-07-31T04:33:39.961Z,15.10
2018-07-31T04:36:10.353Z,15.80
2018-07-31T04:38:41.012Z,14.73
2018-07-31T04:41:11.872Z,16.00
2018-07-31T04:43:42.881Z,16.30
2018-07-31T04:46:13.723Z,17.20
2018-07-31T04:48:44.140Z,14.67
2018-07-31T04:51:14.341Z,16.93
2018-07-31T04:53:44.869Z,17.63
2018-07-31T04:56:15.784Z,16.13
2018-07-31T04:58:46.140Z,14.67
2018-07-31T05:01:16.717Z,14.53
2018-07-31T05:03:47.229Z,15.63
2018-07-31T05:06:18.456Z,14.10
2018-07-31T05:08:48.555Z,16.50
2018-07-31T05:11:18.746Z,16.50
2018-07-31T05:13:49.354Z,14.97
2018-07-31T05:16:19.916Z,16.30
2018-07-31T05:18:50.543Z,15.63
2018-07-31T05:21:21.304Z,16.50
2018-07-31T05:23:51.523Z,16.77
2018-07-31T05:26:22.062Z,16.73
2018-07-31T05:28:52.930Z,15.30
2018-07-31T05:31:22.688Z,15.60
2018-07-31T05:33:53.336Z,14.90
2018-07-31T05:36:23.844Z,15.27
2018-07-31T05:38:54.334Z,14.43
2018-07-31T05:41:24.689Z,14.17
2018-07-31T05:43:54.813Z,13.47
2018-07-31T05:46:25.038Z,13.90
2018-07-31T05:48:55.768Z,14.30
2018-07-31T05:51:26.497Z,14.43
2018-07-31T05:53:57.225Z,13.80
2018-07-31T05:56:27.968Z,14.60
2018-07-31T05:58:58.574Z,13.93
2018-07-31T06:01:28.739Z,15.73
2018-07-31T06:03:59.325Z,15.37
2018-07-31T06:06:30.537Z,15.47
2018-07-31T06:09:01.284Z,15.50
2018-07-31T06:11:31.443Z,13.13
2018-07-31T06:14:01.871Z,13.47
2018-07-31T06:16:32.093Z,12.53
2018-07-31T06:19:03.377Z,13.40
2018-07-31T06:21:34.052Z,13.40
2018-07-31T06:24:03.989Z,13.67
2018-07-31T06:26:34.353Z,14.13
2018-07-31T06:29:05.073Z,12.43
2018-07-31T06:31:36.188Z,12.47
2018-07-31T06:34:06.957Z,11.77
2018-07-31T06:36:37.733Z,12.27
2018-07-31T06:39:09.865Z,12.03
2018-07-31T06:41:40.428Z,12.40
2018-07-31T06:44:10.922Z,12.37
2018-07-31T06:46:41.390Z,12.60
2018-07-31T06:49:11.746Z,12.30
2018-07-31T06:51:42.420Z,11.30
2018-07-31T06:54:12.994Z,12.53
2018-07-31T06:56:43.542Z,12.10
2018-07-31T06:59:14.026Z,11.60
2018-07-31T07:01:44.866Z,20.40
2018-07-31T07:04:16.685Z,12.53
2018-07-31T07:06:47.149Z,10.90
2018-07-31T07:09:17.475Z,10.80
2018-07-31T07:11:47.847Z,10.40
2018-07-31T07:14:18.968Z,9.90
2018-07-31T07:16:49.355Z,10.37
2018-07-31T07:19:19.786Z,10.00
2018-07-31T07:21:50.614Z,9.63
2018-07-31T07:24:21.192Z,9.70
2018-07-31T07:26:51.422Z,9.83
2018-07-31T07:29:21.901Z,10.07
2018-07-31T07:31:51.977Z,8.60
2018-07-31T07:34:22.128Z,9.07
2018-07-31T07:36:52.621Z,9.17
2018-07-31T07:39:23.177Z,8.70
2018-07-31T07:41:53.622Z,8.07
2018-07-31T07:44:24.113Z,8.50
2018-07-31T07:46:55.086Z,9.13
2018-07-31T07:49:25.506Z,7.73
2018-07-31T07:51:55.836Z,7.83
2018-07-31T07:54:26.224Z,8.17
2018-07-31T07:56:56.413Z,8.07
2018-07-31T07:59:27.116Z,8.30
2018-07-31T08:01:57.809Z,7.20
2018-07-31T08:07:19.453Z,9.60
2018-07-31T08:09:49.614Z,6.83
2018-07-31T08:12:19.743Z,7.33
2018-07-31T08:14:50.764Z,6.80
2018-07-31T08:17:21.263Z,7.00
2018-07-31T08:19:52.075Z,7.22
2018-07-31T08:22:22.087Z,7.12
2018-07-31T08:24:51.786Z,7.20
2018-07-31T08:27:21.815Z,6.80
2018-07-31T08:29:52.313Z,7.05
2018-07-31T08:32:22.424Z,6.92
2018-07-31T08:34:52.550Z,7.62
2018-07-31T08:37:22.634Z,7.70
2018-07-31T08:39:53.603Z,7.80
2018-07-31T08:42:23.823Z,7.65
2018-07-31T08:44:54.196Z,7.45
2018-07-31T08:47:24.430Z,7.72
2018-07-31T08:49:54.978Z,7.45
2018-07-31T08:52:25.481Z,7.45
2018-07-31T08:54:56.205Z,8.20
2018-07-31T08:57:26.674Z,7.47
2018-07-31T08:59:57.087Z,7.17
2018-07-31T09:02:27.911Z,7.90
2018-07-31T09:04:58.165Z,7.72
2018-07-31T09:07:28.799Z,8.03
2018-07-31T09:09:59.235Z,8.00
2018-07-31T09:12:29.249Z,8.20
2018-07-31T09:14:59.741Z,8.43
2018-07-31T09:17:30.278Z,7.65
2018-07-31T09:20:01.327Z,8.70
2018-07-31T09:22:31.827Z,8.45
2018-07-31T09:25:02.404Z,8.55
2018-07-31T09:27:32.799Z,8.80
2018-07-31T09:30:03.547Z,9.18
2018-07-31T09:32:38.844Z,8.43
2018-07-31T09:35:08.970Z,8.43
2018-07-31T09:37:39.057Z,8.45
2018-07-31T09:40:09.199Z,8.33
2018-07-31T09:42:39.386Z,8.40
2018-07-31T09:45:09.513Z,8.13
2018-07-31T09:47:39.931Z,7.92
2018-07-31T09:50:10.032Z,8.40
2018-07-31T09:52:40.071Z,7.90
2018-07-31T09:55:10.598Z,7.97
2018-07-31T09:57:41.150Z,8.53
2018-07-31T10:00:11.659Z,8.48
2018-07-31T10:02:41.767Z,8.65
2018-07-31T10:05:11.875Z,8.85
2018-07-31T10:07:42.111Z,8.65
2018-07-31T10:10:12.559Z,8.10
2018-07-31T10:12:43.062Z,8.43
2018-07-31T10:15:13.338Z,7.97
2018-07-31T10:17:43.798Z,8.25
2018-07-31T10:20:13.944Z,8.20
2018-07-31T10:22:47.278Z,9.30
2018-07-31T10:25:17.874Z,8.43
2018-07-31T10:27:48.355Z,8.10
2018-07-31T10:30:18.590Z,8.23
2018-07-31T10:32:49.030Z,9.15
2018-07-31T10:35:20.079Z,9.18
2018-07-31T10:37:50.342Z,9.50
2018-07-31T10:40:20.879Z,9.75
2018-07-31T10:42:51.608Z,9.80
2018-07-31T10:45:21.887Z,9.58
2018-07-31T10:47:52.018Z,8.73
2018-07-31T10:50:22.275Z,7.95
2018-07-31T10:52:52.537Z,7.45
2018-07-31T10:55:22.963Z,7.92
2018-07-31T10:57:52.977Z,7.83
2018-07-31T11:00:23.075Z,8.30
2018-07-31T11:02:53.225Z,7.97
2018-07-31T11:05:23.303Z,7.83
2018-07-31T11:07:53.928Z,6.97
2018-07-31T11:10:24.301Z,7.28
2018-07-31T11:12:54.386Z,7.05
2018-07-31T11:15:24.781Z,6.95
2018-07-31T11:17:54.865Z,7.80
2018-07-31T11:20:25.241Z,7.33
2018-07-31T11:22:56.032Z,7.70
2018-07-31T11:25:26.339Z,7.92
2018-07-31T11:27:56.434Z,7.78
2018-07-31T11:30:27.043Z,7.70
2018-07-31T11:32:57.180Z,8.80
2018-07-31T11:35:27.596Z,8.28
2018-07-31T11:37:57.815Z,7.87
2018-07-31T11:40:28.355Z,7.20
2018-07-31T11:42:59.050Z,8.00
2018-07-31T11:45:29.254Z,8.48
2018-07-31T11:47:59.765Z,9.28
2018-07-31T11:50:30.460Z,8.55
2018-07-31T11:53:00.879Z,8.55
2018-07-31T11:55:31.153Z,8.40
2018-07-31T11:58:01.437Z,8.55
2018-07-31T12:00:31.568Z,9.00
2018-07-31T12:03:02.182Z,8.35
2018-07-31T12:05:32.407Z,9.58
2018-07-31T12:08:02.861Z,8.80
2018-07-31T12:10:33.304Z,8.30
2018-07-31T12:13:03.834Z,8.85
2018-07-31T12:15:34.729Z,8.43
2018-07-31T12:18:04.779Z,8.08
2018-07-31T12:20:35.519Z,8.30
2018-07-31T12:23:05.964Z,8.55
2018-07-31T12:25:36.516Z,8.85
2018-07-31T12:28:07.120Z,8.35
2018-07-31T12:30:37.609Z,8.38
2018-07-31T12:33:08.332Z,8.63
2018-07-31T12:35:39.285Z,8.98
2018-07-31T12:38:09.919Z,8.65
2018-07-31T12:40:40.635Z,8.85
2018-07-31T12:43:11.164Z,8.48
2018-07-31T12:45:41.482Z,9.15
2018-07-31T12:48:11.986Z,8.63
2018-07-31T12:50:41.756Z,8.55
2018-07-31T12:53:11.768Z,8.10
2018-07-31T12:55:41.924Z,8.48
2018-07-31T12:58:12.744Z,8.28
2018-07-31T13:00:43.364Z,7.50
2018-07-31T13:03:13.851Z,7.92
2018-07-31T13:05:44.687Z,8.28
2018-07-31T13:08:14.875Z,8.00
2018-07-31T13:10:45.157Z,8.33
2018-07-31T13:13:15.385Z,8.65
2018-07-31T13:15:45.900Z,8.50
2018-07-31T13:18:16.405Z,9.10
2018-07-31T13:20:46.658Z,8.90
2018-07-31T13:23:17.419Z,9.10
2018-07-31T13:25:48.484Z,8.58
2018-07-31T13:28:18.596Z,8.75
2018-07-31T13:30:49.421Z,9.03
2018-07-31T13:33:19.896Z,8.08
2018-07-31T13:35:50.667Z,7.05
2018-07-31T13:38:53.807Z,7.25
2018-07-31T13:41:24.373Z,6.78
2018-07-31T13:43:55.011Z,6.97
2018-07-31T13:46:25.024Z,6.67
2018-07-31T13:48:55.900Z,6.95
2018-07-31T13:51:26.561Z,7.25
2018-07-31T13:53:57.096Z,7.67
2018-07-31T13:56:28.051Z,7.55
2018-07-31T13:58:58.176Z,7.67
2018-07-31T14:01:28.915Z,7.30
2018-07-31T14:03:59.355Z,7.03
2018-07-31T14:06:29.949Z,7.78
2018-07-31T14:09:00.752Z,7.30
2018-07-31T14:11:31.677Z,7.47
2018-07-31T14:14:01.793Z,7.60
2018-07-31T14:16:32.331Z,7.00
2018-07-31T14:19:03.141Z,7.67
2018-07-31T14:21:33.771Z,7.40
2018-07-31T14:24:03.872Z,7.17
2018-07-31T14:26:34.163Z,7.33
2018-07-31T14:29:04.716Z,8.58
2018-07-31T14:31:35.394Z,6.75
2018-07-31T14:34:06.037Z,5.75
2018-07-31T14:36:36.362Z,5.87
2018-07-31T14:39:13.300Z,5.50
2018-07-31T14:41:43.807Z,11.40
2018-07-31T14:44:14.082Z,7.00
2018-07-31T14:46:44.585Z,5.80
2018-07-31T14:49:15.026Z,5.40
2018-07-31T14:51:46.017Z,5.53
2018-07-31T14:54:16.085Z,5.92
2018-07-31T14:56:46.461Z,7.67
2018-07-31T14:59:17.156Z,6.30
2018-07-31T15:01:47.995Z,6.00
2018-07-31T15:04:18.528Z,5.53
2018-07-31T15:06:48.841Z,6.10
2018-07-31T15:09:19.325Z,5.83
2018-07-31T15:11:49.617Z,5.60
2018-07-31T15:14:19.761Z,5.85
2018-07-31T15:16:50.025Z,6.15
2018-07-31T15:19:20.174Z,5.60
2018-07-31T15:21:50.481Z,5.55
2018-07-31T15:24:20.743Z,6.17
2018-07-31T15:26:50.965Z,5.70
2018-07-31T15:29:21.031Z,6.00
2018-07-31T15:31:51.364Z,7.30
2018-07-31T15:34:21.459Z,5.70
2018-07-31T15:36:52.054Z,6.08
2018-07-31T15:39:22.172Z,6.75
2018-07-31T15:41:53.143Z,8.03
2018-07-31T15:44:23.636Z,6.45
2018-07-31T15:46:54.173Z,6.55
2018-07-31T15:49:24.669Z,6.35
2018-07-31T15:51:54.924Z,6.12
2018-07-31T15:54:25.409Z,5.90
2018-07-31T15:56:55.733Z,6.12
2018-07-31T15:59:26.414Z,5.87
2018-07-31T16:01:57.038Z,6.05
2018-07-31T16:04:27.108Z,6.00
2018-07-31T16:06:57.784Z,5.65
2018-07-31T16:09:28.562Z,6.90
2018-07-31T16:11:59.735Z,7.03
2018-07-31T16:14:30.288Z,6.80
2018-07-31T16:17:00.822Z,6.40
2018-07-31T16:19:31.043Z,6.62
2018-07-31T16:22:01.572Z,6.92
2018-07-31T16:24:31.732Z,7.33
2018-07-31T16:27:03.049Z,7.80
2018-07-31T16:29:33.915Z,7.55
2018-07-31T16:32:04.073Z,7.83
2018-07-31T16:34:33.791Z,7.83
2018-07-31T16:37:03.872Z,7.83
2018-07-31T16:39:34.094Z,7.95
2018-07-31T16:42:04.855Z,7.65
2018-07-31T16:44:35.717Z,7.28
2018-07-31T16:47:06.496Z,7.42
2018-07-31T16:49:37.023Z,8.10
2018-07-31T16:52:08.254Z,7.40
2018-07-31T16:54:38.420Z,7.55
2018-07-31T16:57:09.032Z,7.50
2018-07-31T16:59:40.064Z,7.85
2018-07-31T17:02:10.752Z,7.92
2018-07-31T17:04:40.885Z,7.75
2018-07-31T17:07:11.394Z,8.65
2018-07-31T17:09:41.535Z,7.53
2018-07-31T17:12:12.145Z,7.42
2018-07-31T17:14:43.396Z,7.05
2018-07-31T17:17:13.941Z,7.30
2018-07-31T17:19:44.631Z,7.05
2018-07-31T17:22:15.217Z,6.90
2018-07-31T17:24:45.996Z,6.62
2018-07-31T17:27:16.935Z,6.45
2018-07-31T17:29:46.875Z,7.05
2018-07-31T17:32:17.924Z,7.35
2018-07-31T17:34:48.858Z,6.40
2018-07-31T17:37:19.998Z,7.05
2018-07-31T17:39:51.353Z,7.40
2018-07-31T17:42:21.677Z,6.50
2018-07-31T17:44:52.045Z,7.30
2018-07-31T17:47:22.187Z,8.23
2018-07-31T17:49:52.280Z,8.93
2018-07-31T17:52:22.556Z,8.83
2018-07-31T17:54:53.362Z,8.75
2018-07-31T17:57:23.788Z,7.72
2018-07-31T17:59:54.143Z,10.32
2018-07-31T18:02:24.637Z,7.83
2018-07-31T18:04:54.585Z,10.63
2018-07-31T18:07:25.007Z,9.68
2018-07-31T18:09:55.781Z,9.30
2018-07-31T18:12:25.904Z,8.33
2018-07-31T18:14:56.676Z,9.63
2018-07-31T18:17:26.929Z,10.98
2018-07-31T18:19:57.323Z,13.88
2018-07-31T18:22:28.186Z,12.13
2018-07-31T18:24:58.763Z,13.35
2018-07-31T18:27:29.296Z,12.55
2018-07-31T18:29:59.765Z,14.05
2018-07-31T18:32:30.361Z,14.65
2018-07-31T18:35:00.835Z,9.58
2018-07-31T18:37:31.660Z,9.77
2018-07-31T18:40:02.195Z,9.60
2018-07-31T18:42:32.724Z,9.57
2018-07-31T18:45:02.989Z,9.40
2018-07-31T18:47:33.497Z,11.93
2018-07-31T18:50:04.156Z,10.77
2018-07-31T18:52:34.336Z,10.43
2018-07-31T18:55:04.855Z,9.70
2018-07-31T18:57:35.872Z,9.50
2018-07-31T19:00:06.784Z,9.00
2018-07-31T19:02:36.929Z,9.63
2018-07-31T19:05:07.259Z,7.77
2018-07-31T19:07:37.192Z,10.67
2018-07-31T19:10:07.612Z,9.50
2018-07-31T19:12:38.175Z,8.83
2018-07-31T19:15:10.167Z,10.47
2018-07-31T19:17:40.843Z,10.33
2018-07-31T19:20:11.545Z,9.77
2018-07-31T19:22:42.516Z,11.13
2018-07-31T19:25:12.931Z,9.70
2018-07-31T19:27:44.638Z,10.07
2018-07-31T19:30:14.684Z,10.80
2018-07-31T19:32:45.628Z,9.23
2018-07-31T19:35:16.518Z,8.83
2018-07-31T19:37:47.034Z,9.40
2018-07-31T19:40:17.595Z,9.30
2018-07-31T19:42:48.846Z,8.83
2018-07-31T19:45:19.953Z,9.03
2018-07-31T19:47:51.444Z,8.80
2018-07-31T19:50:22.879Z,9.03
2018-07-31T19:52:53.510Z,9.07
2018-07-31T19:55:23.962Z,8.60
2018-07-31T19:57:54.729Z,8.47
2018-07-31T20:00:24.862Z,8.73
2018-07-31T20:02:55.700Z,8.77
2018-07-31T20:05:26.124Z,8.97
2018-07-31T20:07:56.584Z,8.80
2018-07-31T20:10:27.174Z,9.77
2018-07-31T20:12:58.004Z,9.50
2018-07-31T20:15:28.596Z,9.33
2018-07-31T20:17:59.464Z,10.40
2018-07-31T20:20:30.013Z,10.30
2018-07-31T20:23:01.352Z,10.23
2018-07-31T20:25:31.798Z,12.17
2018-07-31T20:28:02.372Z,13.83
2018-07-31T20:30:32.807Z,12.70
2018-07-31T20:33:03.449Z,12.53
2018-07-31T20:35:33.953Z,10.83
2018-07-31T20:38:04.728Z,10.17
2018-07-31T20:41:00.096Z,9.73
2018-07-31T20:43:30.393Z,10.53
2018-07-31T20:46:01.172Z,10.67
2018-07-31T20:48:32.458Z,10.10
2018-07-31T20:51:02.973Z,9.77
2018-07-31T20:53:33.741Z,9.60
2018-07-31T20:56:04.337Z,9.30
2018-07-31T20:58:34.805Z,9.40
2018-07-31T21:01:06.084Z,10.03
2018-07-31T21:03:37.153Z,9.57
2018-07-31T21:06:07.375Z,9.17
2018-07-31T21:08:38.517Z,9.90
2018-07-31T21:11:10.111Z,9.33
2018-07-31T21:13:40.707Z,9.93
2018-07-31T21:16:11.257Z,10.07
2018-07-31T21:18:41.452Z,10.20
2018-07-31T21:21:11.988Z,10.40
2018-07-31T21:23:43.020Z,10.47
2018-07-31T21:26:13.754Z,10.03
2018-07-31T21:28:44.171Z,10.40
2018-07-31T21:31:14.988Z,9.97
2018-07-31T21:33:45.562Z,10.47
2018-07-31T21:36:16.089Z,10.47
2018-07-31T21:38:47.320Z,10.30
2018-07-31T21:41:18.089Z,10.97
2018-07-31T21:43:49.303Z,10.60
2018-07-31T21:46:20.033Z,10.63
2018-07-31T21:48:50.628Z,10.70
2018-07-31T21:51:42.393Z,11.27
2018-07-31T21:54:17.222Z,11.13
2018-07-31T21:56:47.970Z,11.27
2018-07-31T21:59:18.545Z,11.00
2018-07-31T22:01:49.381Z,13.40
2018-07-31T22:04:19.512Z,12.40
2018-07-31T22:06:49.633Z,10.97
2018-07-31T22:09:23.977Z,12.10
2018-07-31T22:11:53.966Z,11.67
2018-07-31T22:14:23.867Z,20.73
2018-07-31T22:16:53.705Z,13.17
2018-07-31T22:19:23.662Z,11.80
2018-07-31T22:21:53.862Z,10.83
2018-07-31T22:24:23.810Z,10.53
2018-07-31T22:26:54.085Z,10.47
2018-07-31T22:29:24.360Z,10.73
2018-07-31T22:31:54.537Z,10.97
2018-07-31T22:34:24.833Z,10.63
2018-07-31T22:36:54.750Z,9.30
2018-07-31T22:39:24.656Z,10.03
2018-07-31T22:41:54.888Z,10.20
2018-07-31T22:44:25.165Z,10.00
2018-07-31T22:46:55.225Z,10.27
2018-07-31T22:49:25.250Z,10.53
2018-07-31T22:51:56.000Z,10.10
2018-07-31T22:54:25.893Z,10.13
2018-07-31T22:56:55.801Z,10.13
2018-07-31T22:59:25.759Z,10.47
2018-07-31T23:01:56.461Z,11.50
2018-07-31T23:04:26.982Z,10.90
2018-07-31T23:06:57.472Z,10.80
2018-07-31T23:09:27.736Z,11.33
2018-07-31T23:11:58.224Z,10.17
2018-07-31T23:14:29.377Z,10.00
2018-07-31T23:17:00.060Z,10.30
2018-07-31T23:19:30.440Z,10.53
2018-07-31T23:22:01.277Z,10.20
2018-07-31T23:24:31.800Z,10.50
2018-07-31T23:27:02.725Z,10.07
2018-07-31T23:29:33.165Z,11.00
2018-07-31T23:32:03.681Z,10.23
2018-07-31T23:34:34.245Z,10.57
2018-07-31T23:37:04.762Z,10.50
2018-07-31T23:39:35.306Z,10.50
2018-07-31T23:42:05.837Z,10.87
2018-07-31T23:44:36.702Z,11.40
2018-07-31T23:47:07.185Z,11.07
2018-07-31T23:49:38.021Z,10.90
2018-07-31T23:52:08.265Z,10.70
2018-07-31T23:54:38.756Z,10.43
2018-07-31T23:57:09.601Z,10.40
2018-07-31T23:59:40.142Z,10.43
